Terminal Aerodrome Forecast
Issued by NWS Charleston, WV

Current Version | Previous Version | Graphics & Text | Print | Product List | Glossary On
Versions: 1 2 3 4 5 6 7 8 9 10 11 12 13 14 15 16 17 18 19 20 21 22 23 24 25 26
000
FTUS41 KRLX 042330
TAFEKN
TAF
KEKN 042330Z 0500/0524 28004KT P6SM SHRA BKN040
     FM050300 31004KT 4SM SHRA OVC020
     FM050700 32004KT 3SM SHRA BR OVC015
     FM051100 31003KT 3SM SHRA BR OVC008
     FM052000 33005KT 3SM SHRA BR OVC015=

USA.gov is the U.S. government's official web portal to all federal, state and local government web resources and services.